Thunder radar more information blitzortung!


Radar de pluja more information rain snow radar


Visita la nostra xarxa de llocs de meteo:

Template documentation
and downloads

And another site



Extreme low temperature From: 13-12-2017 09:00 Until: 09:59 warning for: Extreme low temperature Level: Yellow info button

Pagina Historial Weather Underground text

Diari Resum Juny 5, 2017 Unitats:  Tant    Imperial   Mètric
« Previous Dia
SegĂźent Dia »
Diari Setmana Mensual Anual Personalitzada
  Maxima: Minima: Media:
Temperatura: 78.3 °F /  25.7 °C 58.5 °F /  14.7 °C 68.2 °F /  20.1 °C
Punt de rosada: 62.2 °F /  16.8 °C 48.7 °F /  9.3 °C 56.1 °F /  13.4 °C
Humitat: 94 % 46 % 68 %
Wind Speed: 10.7 mph /  17.2 km/h - 4.3 mph /  6.9 km/h
RĂ fegues de vent: 10.7 mph /  17.2 km/h - -
Vent:- - SW
Pression baro: 30 in /  1016.8 hPa 29.8 in /  1010.0 hPa -
Precipitacions: 0.21 in /  5.3 mm    
Historical Graphs
 
 
Dades de taula per Juny 5, 2017
Temps Temperatura Punt de rosada Pression baro Vent Wind Speed RĂ fegues de vent Humitat Rainfall Rate (Hourly)
00:00 59 °F /  15.0 °C 55.4 °F /  13.0 °C 29.9 in /  1013.8 hPa SW 1 mph /  1.6 km/h 2 mph /  3.2 km/h 88 % 0 in /  0.0 mm
00:01 64.4 °F /  18.0 °C 58.1 °F /  14.5 °C 29.9 in /  1012.8 hPa NNW 2.3 mph /  3.7 km/h   80 % 0 in /  0.0 mm
00:06 64.2 °F /  17.9 °C 57.9 °F /  14.4 °C 29.9 in /  1013.8 hPa NNE 2.3 mph /  3.7 km/h 2.3 mph /  3.7 km/h 80 % 0 in /  0.0 mm
00:10 58.8 °F /  14.9 °C 55.6 °F /  13.1 °C 29.9 in /  1013.8 hPa Calm   2 mph /  3.2 km/h 89 % 0.04 in /  1.0 mm
00:20 58.8 °F /  14.9 °C 55.6 °F /  13.1 °C 29.9 in /  1012.8 hPa SW 2 mph /  3.2 km/h 2 mph /  3.2 km/h 89 % 0.04 in /  1.0 mm
00:30 58.8 °F /  14.9 °C 55.6 °F /  13.1 °C 29.9 in /  1012.8 hPa SW 1 mph /  1.6 km/h 2 mph /  3.2 km/h 89 % 0 in /  0.0 mm
00:40 58.6 °F /  14.8 °C 55.4 °F /  13.0 °C 29.9 in /  1012.8 hPa SW 1 mph /  1.6 km/h 3 mph /  4.8 km/h 89 % 0 in /  0.0 mm
00:50 58.6 °F /  14.8 °C 55.4 °F /  13.0 °C 29.9 in /  1013.8 hPa SW 2 mph /  3.2 km/h 3 mph /  4.8 km/h 89 % 0 in /  0.0 mm
01:00 58.6 °F /  14.8 °C 55.4 °F /  13.0 °C 29.9 in /  1013.8 hPa SW 2 mph /  3.2 km/h 2 mph /  3.2 km/h 89 % 0 in /  0.0 mm
01:10 58.6 °F /  14.8 °C 55.9 °F /  13.3 °C 29.9 in /  1013.8 hPa Calm   2 mph /  3.2 km/h 91 % 0 in /  0.0 mm
01:20 58.6 °F /  14.8 °C 55.8 °F /  13.2 °C 29.9 in /  1013.8 hPa SW 1 mph /  1.6 km/h 2 mph /  3.2 km/h 90 % 0 in /  0.0 mm
01:30 58.6 °F /  14.8 °C 55.9 °F /  13.3 °C 29.9 in /  1013.8 hPa SW 1 mph /  1.6 km/h 2 mph /  3.2 km/h 91 % 0 in /  0.0 mm
01:40 58.6 °F /  14.8 °C 55.9 °F /  13.3 °C 29.9 in /  1013.8 hPa Calm     91 % 0 in /  0.0 mm
01:50 58.5 °F /  14.7 °C 55.6 °F /  13.1 °C 29.9 in /  1013.8 hPa SW 2 mph /  3.2 km/h 4 mph /  6.4 km/h 90 % 0 in /  0.0 mm
02:00 58.6 °F /  14.8 °C 55.8 °F /  13.2 °C 29.9 in /  1013.8 hPa SW 2 mph /  3.2 km/h 3 mph /  4.8 km/h 90 % 0 in /  0.0 mm
02:10 58.8 °F /  14.9 °C 56.1 °F /  13.4 °C 29.9 in /  1013.8 hPa SW 1 mph /  1.6 km/h 3 mph /  4.8 km/h 91 % 0 in /  0.0 mm
02:20 58.8 °F /  14.9 °C 56.5 °F /  13.6 °C 29.9 in /  1013.8 hPa SW 1 mph /  1.6 km/h 2 mph /  3.2 km/h 92 % 0 in /  0.0 mm
02:30 58.8 °F /  14.9 °C 56.5 °F /  13.6 °C 29.9 in /  1013.8 hPa SW 1 mph /  1.6 km/h 2 mph /  3.2 km/h 92 % 0 in /  0.0 mm
02:40 58.8 °F /  14.9 °C 56.5 °F /  13.6 °C 29.9 in /  1013.8 hPa Calm   2 mph /  3.2 km/h 92 % 0 in /  0.0 mm
02:50 58.8 °F /  14.9 °C 56.8 °F /  13.8 °C 29.9 in /  1013.8 hPa Calm     93 % 0 in /  0.0 mm
03:00 58.8 °F /  14.9 °C 56.8 °F /  13.8 °C 29.9 in /  1013.8 hPa Calm   1 mph /  1.6 km/h 93 % 0 in /  0.0 mm
03:10 59 °F /  15.0 °C 57 °F /  13.9 °C 30 in /  1014.8 hPa Calm   1 mph /  1.6 km/h 93 % 0 in /  0.0 mm
03:20 59 °F /  15.0 °C 57 °F /  13.9 °C 29.9 in /  1013.8 hPa Calm   2 mph /  3.2 km/h 93 % 0 in /  0.0 mm
03:30 59.2 °F /  15.1 °C 57.2 °F /  14.0 °C 29.9 in /  1013.8 hPa Calm   1 mph /  1.6 km/h 93 % 0 in /  0.0 mm
03:40 59.2 °F /  15.1 °C 57.2 °F /  14.0 °C 29.9 in /  1013.8 hPa SW 1 mph /  1.6 km/h 2 mph /  3.2 km/h 93 % 0 in /  0.0 mm
03:50 59.2 °F /  15.1 °C 57.2 °F /  14.0 °C 29.9 in /  1013.8 hPa SW 1 mph /  1.6 km/h 2 mph /  3.2 km/h 93 % 0 in /  0.0 mm
04:00 59.2 °F /  15.1 °C 57.2 °F /  14.0 °C 29.9 in /  1013.8 hPa WSW 1 mph /  1.6 km/h 3 mph /  4.8 km/h 93 % 0.04 in /  1.0 mm
04:10 59.2 °F /  15.1 °C 57.2 °F /  14.0 °C 29.9 in /  1013.8 hPa WSW 1 mph /  1.6 km/h 2 mph /  3.2 km/h 93 % 0.04 in /  1.0 mm
04:20 59.5 °F /  15.3 °C 57.6 °F /  14.2 °C 29.9 in /  1013.8 hPa SW 1 mph /  1.6 km/h 2 mph /  3.2 km/h 93 % 0 in /  0.0 mm
04:30 59.5 °F /  15.3 °C 57.6 °F /  14.2 °C 29.9 in /  1013.8 hPa WSW 1 mph /  1.6 km/h 3 mph /  4.8 km/h 93 % 0 in /  0.0 mm
04:35 59.7 °F /  15.4 °C 57.7 °F /  14.3 °C 29.9 in /  1013.8 hPa Calm     93 % 0 in /  0.0 mm
09:36 59.7 °F /  15.4 °C 57.7 °F /  14.3 °C 30 in /  1014.8 hPa Calm   1.2 mph /  1.9 km/h 93 % 0.04 in /  1.0 mm
09:41 59.9 °F /  15.5 °C 58.3 °F /  14.6 °C 30 in /  1014.8 hPa Calm     94 % 0.04 in /  1.0 mm
09:46 59.9 °F /  15.5 °C 58.3 °F /  14.6 °C 30 in /  1014.8 hPa SSW 1.2 mph /  1.9 km/h   94 % 0.04 in /  1.0 mm
09:51 60.1 °F /  15.6 °C 58.3 °F /  14.6 °C 30 in /  1014.8 hPa Calm     94 % 0.04 in /  1.0 mm
09:56 60.1 °F /  15.6 °C 58.3 °F /  14.6 °C 30 in /  1014.8 hPa Calm     94 % 0.04 in /  1.0 mm
10:01 60.3 °F /  15.7 °C 58.5 °F /  14.7 °C 30 in /  1014.8 hPa SW 1.2 mph /  1.9 km/h   94 % 0.04 in /  1.0 mm
10:06 60.3 °F /  15.7 °C 58.5 °F /  14.7 °C 30 in /  1014.8 hPa SW 2.3 mph /  3.7 km/h 2.3 mph /  3.7 km/h 94 % 0.04 in /  1.0 mm
10:11 60.3 °F /  15.7 °C 58.5 °F /  14.7 °C 30 in /  1014.8 hPa SW 3.5 mph /  5.6 km/h 3.5 mph /  5.6 km/h 94 % 0.04 in /  1.0 mm
10:16 60.4 °F /  15.8 °C 58.6 °F /  14.8 °C 30 in /  1014.8 hPa SW 4.6 mph /  7.4 km/h 4.6 mph /  7.4 km/h 94 % 0 in /  0.0 mm
10:21 60.3 °F /  15.7 °C 58.5 °F /  14.7 °C 30 in /  1014.8 hPa SW 2.3 mph /  3.7 km/h 2.3 mph /  3.7 km/h 94 % 0 in /  0.0 mm
10:26 60.4 °F /  15.8 °C 58.6 °F /  14.8 °C 30 in /  1014.8 hPa SW 2.3 mph /  3.7 km/h 2.3 mph /  3.7 km/h 94 % 0 in /  0.0 mm
10:31 60.4 °F /  15.8 °C 58.6 °F /  14.8 °C 30 in /  1014.8 hPa SW 2.3 mph /  3.7 km/h 2.3 mph /  3.7 km/h 94 % 0 in /  0.0 mm
10:36 60.6 °F /  15.9 °C 58.8 °F /  14.9 °C 30 in /  1015.8 hPa SW 2.3 mph /  3.7 km/h 2.3 mph /  3.7 km/h 94 % 0 in /  0.0 mm
10:41 60.8 °F /  16.0 °C 59.2 °F /  15.1 °C 30 in /  1015.8 hPa SSW 1.2 mph /  1.9 km/h   94 % 0 in /  0.0 mm
10:46 60.8 °F /  16.0 °C 59.2 °F /  15.1 °C 30 in /  1015.8 hPa SW 2.3 mph /  3.7 km/h 2.3 mph /  3.7 km/h 94 % 0 in /  0.0 mm
10:51 61.2 °F /  16.2 °C 59.4 °F /  15.2 °C 30 in /  1015.8 hPa WSW 2.3 mph /  3.7 km/h 2.3 mph /  3.7 km/h 94 % 0 in /  0.0 mm
10:56 61.3 °F /  16.3 °C 59.5 °F /  15.3 °C 30 in /  1015.8 hPa West 1.2 mph /  1.9 km/h   94 % 0 in /  0.0 mm
11:01 61.3 °F /  16.3 °C 59.5 °F /  15.3 °C 30 in /  1015.8 hPa WSW 2.3 mph /  3.7 km/h 2.3 mph /  3.7 km/h 94 % 0 in /  0.0 mm
11:06 61.3 °F /  16.3 °C 59.4 °F /  15.2 °C 30 in /  1014.8 hPa WSW 2.3 mph /  3.7 km/h 2.3 mph /  3.7 km/h 93 % 0 in /  0.0 mm
11:11 61.5 °F /  16.4 °C 59.5 °F /  15.3 °C 30 in /  1014.8 hPa WSW 1.2 mph /  1.9 km/h   93 % 0 in /  0.0 mm
11:16 62.1 °F /  16.7 °C 60.1 °F /  15.6 °C 30 in /  1014.8 hPa SW 2.9 mph /  4.7 km/h   93 % 0 in /  0.0 mm
11:21 62.2 °F /  16.8 °C 60.3 °F /  15.7 °C 30 in /  1015.8 hPa West 2.3 mph /  3.7 km/h 2.3 mph /  3.7 km/h 93 % 0 in /  0.0 mm
11:26 62.4 °F /  16.9 °C 60.1 °F /  15.6 °C 30 in /  1015.8 hPa SW 1.4 mph /  2.3 km/h   92 % 0 in /  0.0 mm
11:31 62.6 °F /  17.0 °C 59.9 °F /  15.5 °C 30 in /  1015.8 hPa SW 1.2 mph /  1.9 km/h   91 % 0 in /  0.0 mm
11:36 63 °F /  17.2 °C 60.3 °F /  15.7 °C 30 in /  1015.8 hPa Calm     91 % 0 in /  0.0 mm
11:37 63 °F /  17.2 °C 60.3 °F /  15.7 °C 30 in /  1015.8 hPa Calm     91 % 0 in /  0.0 mm
11:42 63.3 °F /  17.4 °C 60.6 °F /  15.9 °C 30 in /  1015.8 hPa SW 1.2 mph /  1.9 km/h   91 % 0 in /  0.0 mm
11:47 63.3 °F /  17.4 °C 60.3 °F /  15.7 °C 30 in /  1015.8 hPa WNW 2.3 mph /  3.7 km/h 2.3 mph /  3.7 km/h 90 % 0 in /  0.0 mm
11:52 63.3 °F /  17.4 °C 60.3 °F /  15.7 °C 30 in /  1016.8 hPa NW 3.5 mph /  5.6 km/h 3.5 mph /  5.6 km/h 90 % 0 in /  0.0 mm
11:57 63.3 °F /  17.4 °C 60.1 °F /  15.6 °C 30 in /  1016.8 hPa South 2.3 mph /  3.7 km/h 2.3 mph /  3.7 km/h 89 % 0 in /  0.0 mm
12:02 63.3 °F /  17.4 °C 59.7 °F /  15.4 °C 30 in /  1016.8 hPa NNW 1.2 mph /  1.9 km/h   88 % 0 in /  0.0 mm
12:07 63.3 °F /  17.4 °C 59.4 °F /  15.2 °C 30 in /  1015.8 hPa NW 1.2 mph /  1.9 km/h   87 % 0 in /  0.0 mm
12:12 63.3 °F /  17.4 °C 59.2 °F /  15.1 °C 30 in /  1015.8 hPa WSW 1.2 mph /  1.9 km/h 1.2 mph /  1.9 km/h 86 % 0 in /  0.0 mm
12:17 63.7 °F /  17.6 °C 59.7 °F /  15.4 °C 30 in /  1015.8 hPa WSW 1.2 mph /  1.9 km/h 1.2 mph /  1.9 km/h 87 % 0 in /  0.0 mm
12:22 64 °F /  17.8 °C 60.1 °F /  15.6 °C 30 in /  1015.8 hPa WSW 2.3 mph /  3.7 km/h 2.3 mph /  3.7 km/h 87 % 0 in /  0.0 mm
12:27 64 °F /  17.8 °C 59.7 °F /  15.4 °C 30 in /  1015.8 hPa SW 2.3 mph /  3.7 km/h 2.3 mph /  3.7 km/h 86 % 0 in /  0.0 mm
12:32 64 °F /  17.8 °C 59.7 °F /  15.4 °C 30 in /  1015.8 hPa WNW 2.3 mph /  3.7 km/h 2.3 mph /  3.7 km/h 86 % 0 in /  0.0 mm
12:37 64.2 °F /  17.9 °C 59.5 °F /  15.3 °C 30 in /  1015.8 hPa WSW 2.3 mph /  3.7 km/h 2.3 mph /  3.7 km/h 85 % 0 in /  0.0 mm
12:42 64.4 °F /  18.0 °C 59.5 °F /  15.3 °C 30 in /  1015.8 hPa SSE 3.5 mph /  5.6 km/h 3.5 mph /  5.6 km/h 84 % 0 in /  0.0 mm
12:47 64.9 °F /  18.3 °C 60.1 °F /  15.6 °C 30 in /  1015.8 hPa West 2.9 mph /  4.7 km/h 2.9 mph /  4.7 km/h 84 % 0 in /  0.0 mm
12:52 65.7 °F /  18.7 °C 60.4 °F /  15.8 °C 30 in /  1014.8 hPa SW 2.3 mph /  3.7 km/h 2.3 mph /  3.7 km/h 83 % 0 in /  0.0 mm
12:53 65.8 °F /  18.8 °C 60.4 °F /  15.8 °C 30 in /  1014.8 hPa WSW 4.6 mph /  7.4 km/h 4.6 mph /  7.4 km/h 83 % 0 in /  0.0 mm
12:58 66.7 °F /  19.3 °C 60.6 °F /  15.9 °C 30 in /  1014.8 hPa West 4.6 mph /  7.4 km/h 4.6 mph /  7.4 km/h 81 % 0 in /  0.0 mm
13:03 67.8 °F /  19.9 °C 61.3 °F /  16.3 °C 30 in /  1014.8 hPa SSW 3.5 mph /  5.6 km/h 3.5 mph /  5.6 km/h 80 % 0 in /  0.0 mm
13:08 68.9 °F /  20.5 °C 62.1 °F /  16.7 °C 30 in /  1014.8 hPa WSW 5.8 mph /  9.3 km/h 5.8 mph /  9.3 km/h 79 % 0 in /  0.0 mm
13:13 69.4 °F /  20.8 °C 62.2 °F /  16.8 °C 30 in /  1014.8 hPa West 3.5 mph /  5.6 km/h 3.5 mph /  5.6 km/h 78 % 0 in /  0.0 mm
13:18 68.7 °F /  20.4 °C 61.2 °F /  16.2 °C 30 in /  1014.8 hPa South 4.6 mph /  7.4 km/h 4.6 mph /  7.4 km/h 77 % 0 in /  0.0 mm
13:23 68.9 °F /  20.5 °C 61 °F /  16.1 °C 30 in /  1014.8 hPa West 5.8 mph /  9.3 km/h 5.8 mph /  9.3 km/h 76 % 0 in /  0.0 mm
13:28 69.3 °F /  20.7 °C 61 °F /  16.1 °C 30 in /  1014.8 hPa WSW 4.6 mph /  7.4 km/h 4.6 mph /  7.4 km/h 75 % 0 in /  0.0 mm
13:33 70 °F /  21.1 °C 61 °F /  16.1 °C 29.9 in /  1013.8 hPa WNW 8.1 mph /  13.0 km/h 8.1 mph /  13.0 km/h 73 % 0 in /  0.0 mm
13:38 70.3 °F /  21.3 °C 61 °F /  16.1 °C 29.9 in /  1013.8 hPa SW 6.9 mph /  11.1 km/h 6.9 mph /  11.1 km/h 72 % 0 in /  0.0 mm
13:43 70.9 °F /  21.6 °C 61 °F /  16.1 °C 29.9 in /  1013.8 hPa NNW 7.1 mph /  11.4 km/h 7.1 mph /  11.4 km/h 71 % 0 in /  0.0 mm
13:48 71.4 °F /  21.9 °C 61.2 °F /  16.2 °C 30 in /  1014.8 hPa NW 4.6 mph /  7.4 km/h 4.6 mph /  7.4 km/h 70 % 0 in /  0.0 mm
13:53 71.8 °F /  22.1 °C 60.6 °F /  15.9 °C 30 in /  1014.8 hPa SW 4.3 mph /  6.9 km/h 4.3 mph /  6.9 km/h 68 % 0 in /  0.0 mm
13:58 72.1 °F /  22.3 °C 61 °F /  16.1 °C 30 in /  1014.8 hPa WSW 5.8 mph /  9.3 km/h 5.8 mph /  9.3 km/h 68 % 0 in /  0.0 mm
14:03 71.8 °F /  22.1 °C 60.3 °F /  15.7 °C 30 in /  1014.8 hPa West 4.6 mph /  7.4 km/h 4.6 mph /  7.4 km/h 67 % 0 in /  0.0 mm
14:13 72.5 °F /  22.5 °C 59.5 °F /  15.3 °C 30 in /  1014.8 hPa WSW 9.2 mph /  14.8 km/h 9.2 mph /  14.8 km/h 64 % 0 in /  0.0 mm
14:18 73 °F /  22.8 °C 60.6 °F /  15.9 °C 29.9 in /  1013.8 hPa South 5.4 mph /  8.7 km/h 5.4 mph /  8.7 km/h 65 % 0 in /  0.0 mm
14:23 73.8 °F /  23.2 °C 60.4 °F /  15.8 °C 29.9 in /  1013.8 hPa WSW 5.8 mph /  9.3 km/h 5.8 mph /  9.3 km/h 63 % 0 in /  0.0 mm
14:28 74.7 °F /  23.7 °C 61.2 °F /  16.2 °C 29.9 in /  1013.8 hPa SW 2.3 mph /  3.7 km/h 2.3 mph /  3.7 km/h 63 % 0 in /  0.0 mm
14:33 75.2 °F /  24.0 °C 60.8 °F /  16.0 °C 29.9 in /  1013.8 hPa SW 5.8 mph /  9.3 km/h 5.8 mph /  9.3 km/h 61 % 0 in /  0.0 mm
14:38 74.5 °F /  23.6 °C 60.1 °F /  15.6 °C 29.9 in /  1013.8 hPa SW 3.5 mph /  5.6 km/h 3.5 mph /  5.6 km/h 61 % 0 in /  0.0 mm
14:43 75.2 °F /  24.0 °C 60.4 °F /  15.8 °C 29.9 in /  1013.8 hPa South 3.5 mph /  5.6 km/h 3.5 mph /  5.6 km/h 60 % 0 in /  0.0 mm
14:48 75.2 °F /  24.0 °C 58.8 °F /  14.9 °C 29.9 in /  1013.8 hPa WSW 5.8 mph /  9.3 km/h 5.8 mph /  9.3 km/h 57 % 0 in /  0.0 mm
14:53 76.5 °F /  24.7 °C 61.5 °F /  16.4 °C 29.9 in /  1013.8 hPa SSE 3.6 mph /  5.8 km/h 3.6 mph /  5.8 km/h 60 % 0 in /  0.0 mm
14:58 76.6 °F /  24.8 °C 60.8 °F /  16.0 °C 29.9 in /  1013.8 hPa SW 5.8 mph /  9.3 km/h 5.8 mph /  9.3 km/h 58 % 0 in /  0.0 mm
15:03 76.5 °F /  24.7 °C 60.6 °F /  15.9 °C 29.9 in /  1013.8 hPa South 5.8 mph /  9.3 km/h 5.8 mph /  9.3 km/h 58 % 0 in /  0.0 mm
15:08 77.5 °F /  25.3 °C 61.2 °F /  16.2 °C 29.9 in /  1013.8 hPa SW 3.5 mph /  5.6 km/h 3.5 mph /  5.6 km/h 57 % 0 in /  0.0 mm
15:13 77.9 °F /  25.5 °C 59.9 °F /  15.5 °C 29.9 in /  1013.8 hPa SSW 4.9 mph /  7.9 km/h 4.9 mph /  7.9 km/h 54 % 0 in /  0.0 mm
15:18 77.7 °F /  25.4 °C 60.3 °F /  15.7 °C 29.9 in /  1012.8 hPa West 2.3 mph /  3.7 km/h 2.3 mph /  3.7 km/h 55 % 0 in /  0.0 mm
15:23 77 °F /  25.0 °C 59.5 °F /  15.3 °C 29.9 in /  1012.8 hPa SSW 6.2 mph /  10.0 km/h 6.2 mph /  10.0 km/h 55 % 0 in /  0.0 mm
15:28 76.5 °F /  24.7 °C 59.5 °F /  15.3 °C 29.9 in /  1012.8 hPa South 3.5 mph /  5.6 km/h 3.5 mph /  5.6 km/h 56 % 0 in /  0.0 mm
15:33 77.2 °F /  25.1 °C 59.2 °F /  15.1 °C 29.9 in /  1013.8 hPa SSW 6.2 mph /  10.0 km/h 6.2 mph /  10.0 km/h 54 % 0 in /  0.0 mm
15:38 76.8 °F /  24.9 °C 59.4 °F /  15.2 °C 29.9 in /  1013.8 hPa SW 5.8 mph /  9.3 km/h 5.8 mph /  9.3 km/h 55 % 0 in /  0.0 mm
15:43 75.9 °F /  24.4 °C 58.6 °F /  14.8 °C 29.9 in /  1013.8 hPa SW 5.8 mph /  9.3 km/h 5.8 mph /  9.3 km/h 55 % 0 in /  0.0 mm
15:48 75.7 °F /  24.3 °C 57.9 °F /  14.4 °C 29.9 in /  1013.8 hPa South 8.1 mph /  13.0 km/h 8.1 mph /  13.0 km/h 54 % 0 in /  0.0 mm
15:53 76.1 °F /  24.5 °C 58.8 °F /  14.9 °C 29.9 in /  1013.8 hPa South 5.8 mph /  9.3 km/h 5.8 mph /  9.3 km/h 55 % 0 in /  0.0 mm
15:58 77.4 °F /  25.2 °C 58.8 °F /  14.9 °C 29.9 in /  1013.8 hPa SSW 3.5 mph /  5.6 km/h 3.5 mph /  5.6 km/h 53 % 0 in /  0.0 mm
16:03 77.7 °F /  25.4 °C 59.2 °F /  15.1 °C 29.9 in /  1012.8 hPa SW 6.9 mph /  11.1 km/h 6.9 mph /  11.1 km/h 53 % 0 in /  0.0 mm
16:08 76.1 °F /  24.5 °C 57.7 °F /  14.3 °C 29.9 in /  1012.8 hPa SW 2.3 mph /  3.7 km/h 2.3 mph /  3.7 km/h 53 % 0 in /  0.0 mm
16:13 76.6 °F /  24.8 °C 58.6 °F /  14.8 °C 29.9 in /  1012.8 hPa SW 1.2 mph /  1.9 km/h 1.2 mph /  1.9 km/h 54 % 0 in /  0.0 mm
16:23 77 °F /  25.0 °C 57.9 °F /  14.4 °C 29.9 in /  1011.7 hPa WNW 5.8 mph /  9.3 km/h 5.8 mph /  9.3 km/h 52 % 0 in /  0.0 mm
16:28 77.2 °F /  25.1 °C 58.3 °F /  14.6 °C 29.9 in /  1011.7 hPa SSW 2.6 mph /  4.2 km/h 2.9 mph /  4.7 km/h 52 % 0 in /  0.0 mm
16:33 76.3 °F /  24.6 °C 57.9 °F /  14.4 °C 29.9 in /  1012.8 hPa SW 8.5 mph /  13.7 km/h 8.5 mph /  13.7 km/h 53 % 0 in /  0.0 mm
16:38 75.6 °F /  24.2 °C 57.2 °F /  14.0 °C 29.9 in /  1012.8 hPa SW 4.6 mph /  7.4 km/h 4.6 mph /  7.4 km/h 53 % 0 in /  0.0 mm
16:43 75.4 °F /  24.1 °C 57 °F /  13.9 °C 29.9 in /  1012.8 hPa WNW 4.6 mph /  7.4 km/h 4.6 mph /  7.4 km/h 53 % 0 in /  0.0 mm
16:48 74.8 °F /  23.8 °C 55.9 °F /  13.3 °C 29.9 in /  1011.7 hPa SW 8.1 mph /  13.0 km/h 8.1 mph /  13.0 km/h 52 % 0 in /  0.0 mm
16:53 75.6 °F /  24.2 °C 56.7 °F /  13.7 °C 29.9 in /  1011.7 hPa WSW 5.8 mph /  9.3 km/h 5.8 mph /  9.3 km/h 52 % 0 in /  0.0 mm
16:58 77.2 °F /  25.1 °C 58.3 °F /  14.6 °C 29.9 in /  1011.7 hPa SW 4.3 mph /  6.9 km/h 4.3 mph /  6.9 km/h 52 % 0 in /  0.0 mm
17:03 78.3 °F /  25.7 °C 58.6 °F /  14.8 °C 29.9 in /  1011.7 hPa West 4.6 mph /  7.4 km/h 4.6 mph /  7.4 km/h 51 % 0 in /  0.0 mm
17:08 77.9 °F /  25.5 °C 57.7 °F /  14.3 °C 29.9 in /  1011.7 hPa WSW 8.1 mph /  13.0 km/h 8.1 mph /  13.0 km/h 50 % 0 in /  0.0 mm
17:13 77.4 °F /  25.2 °C 57.4 °F /  14.1 °C 29.9 in /  1011.7 hPa WSW 4.6 mph /  7.4 km/h 4.6 mph /  7.4 km/h 50 % 0 in /  0.0 mm
17:18 76.1 °F /  24.5 °C 56.7 °F /  13.7 °C 29.9 in /  1011.7 hPa SW 4.6 mph /  7.4 km/h 4.6 mph /  7.4 km/h 51 % 0 in /  0.0 mm
17:23 75.7 °F /  24.3 °C 56.3 °F /  13.5 °C 29.9 in /  1011.7 hPa SW 2.4 mph /  3.9 km/h   51 % 0 in /  0.0 mm
17:28 76.6 °F /  24.8 °C 57.2 °F /  14.0 °C 29.9 in /  1011.7 hPa SW 5.8 mph /  9.3 km/h 5.8 mph /  9.3 km/h 51 % 0 in /  0.0 mm
17:33 76.5 °F /  24.7 °C 57 °F /  13.9 °C 29.9 in /  1011.7 hPa SW 5.8 mph /  9.3 km/h 5.8 mph /  9.3 km/h 51 % 0 in /  0.0 mm
17:38 76.3 °F /  24.6 °C 56.3 °F /  13.5 °C 29.9 in /  1011.7 hPa WSW 5.8 mph /  9.3 km/h 5.8 mph /  9.3 km/h 50 % 0 in /  0.0 mm
17:43 76.8 °F /  24.9 °C 56.8 °F /  13.8 °C 29.9 in /  1011.7 hPa South 6.9 mph /  11.1 km/h 6.9 mph /  11.1 km/h 50 % 0 in /  0.0 mm
17:48 77.4 °F /  25.2 °C 56.7 °F /  13.7 °C 29.8 in /  1010.7 hPa SW 5.9 mph /  9.5 km/h 5.9 mph /  9.5 km/h 49 % 0 in /  0.0 mm
17:53 77.7 °F /  25.4 °C 57 °F /  13.9 °C 29.8 in /  1010.7 hPa WSW 5.8 mph /  9.3 km/h 5.8 mph /  9.3 km/h 49 % 0 in /  0.0 mm
17:58 78.1 °F /  25.6 °C 56.8 °F /  13.8 °C 29.8 in /  1010.7 hPa SW 6.2 mph /  10.0 km/h 6.2 mph /  10.0 km/h 48 % 0 in /  0.0 mm
18:03 77.9 °F /  25.5 °C 56.7 °F /  13.7 °C 29.8 in /  1010.7 hPa West 5.8 mph /  9.3 km/h 5.8 mph /  9.3 km/h 48 % 0 in /  0.0 mm
18:08 76.6 °F /  24.8 °C 55.9 °F /  13.3 °C 29.8 in /  1010.7 hPa South 5.8 mph /  9.3 km/h 5.8 mph /  9.3 km/h 49 % 0 in /  0.0 mm
18:13 76.3 °F /  24.6 °C 55.8 °F /  13.2 °C 29.8 in /  1010.7 hPa SSW 5.8 mph /  9.3 km/h 5.8 mph /  9.3 km/h 49 % 0 in /  0.0 mm
18:18 76.6 °F /  24.8 °C 55.6 °F /  13.1 °C 29.8 in /  1010.0 hPa WSW 4.6 mph /  7.4 km/h 4.6 mph /  7.4 km/h 48 % 0 in /  0.0 mm
18:23 77.2 °F /  25.1 °C 55.4 °F /  13.0 °C 29.8 in /  1010.0 hPa WSW 8.1 mph /  13.0 km/h 8.1 mph /  13.0 km/h 47 % 0 in /  0.0 mm
18:28 77 °F /  25.0 °C 54.7 °F /  12.6 °C 29.8 in /  1010.0 hPa South 6.4 mph /  10.3 km/h 6.4 mph /  10.3 km/h 46 % 0 in /  0.0 mm
18:33 76.6 °F /  24.8 °C 54.9 °F /  12.7 °C 29.8 in /  1010.0 hPa WSW 9.2 mph /  14.8 km/h 9.2 mph /  14.8 km/h 47 % 0 in /  0.0 mm
18:38 75.6 °F /  24.2 °C 53.2 °F /  11.8 °C 29.8 in /  1010.0 hPa WSW 8.1 mph /  13.0 km/h 8.1 mph /  13.0 km/h 46 % 0 in /  0.0 mm
18:43 75.7 °F /  24.3 °C 54.1 °F /  12.3 °C 29.8 in /  1010.0 hPa West 9.2 mph /  14.8 km/h 9.2 mph /  14.8 km/h 47 % 0 in /  0.0 mm
18:48 75.9 °F /  24.4 °C 54.1 °F /  12.3 °C 29.8 in /  1010.7 hPa West 10.7 mph /  17.2 km/h 10.7 mph /  17.2 km/h 47 % 0 in /  0.0 mm
18:53 75.6 °F /  24.2 °C 54 °F /  12.2 °C 29.8 in /  1010.7 hPa SW 8.1 mph /  13.0 km/h 8.1 mph /  13.0 km/h 47 % 0 in /  0.0 mm
18:58 75.7 °F /  24.3 °C 54.1 °F /  12.3 °C 29.8 in /  1010.7 hPa SW 8.1 mph /  13.0 km/h 8.1 mph /  13.0 km/h 47 % 0 in /  0.0 mm
19:03 75.6 °F /  24.2 °C 53.2 °F /  11.8 °C 29.8 in /  1010.0 hPa SSW 9.2 mph /  14.8 km/h 9.2 mph /  14.8 km/h 46 % 0 in /  0.0 mm
19:08 75.2 °F /  24.0 °C 53.6 °F /  12.0 °C 29.8 in /  1010.0 hPa SW 5.8 mph /  9.3 km/h 5.8 mph /  9.3 km/h 47 % 0 in /  0.0 mm
19:13 74.5 °F /  23.6 °C 52.9 °F /  11.6 °C 29.8 in /  1010.0 hPa SW 6.9 mph /  11.1 km/h 6.9 mph /  11.1 km/h 47 % 0 in /  0.0 mm
19:18 73.9 °F /  23.3 °C 52.3 °F /  11.3 °C 29.8 in /  1010.7 hPa WSW 8.1 mph /  13.0 km/h 8.1 mph /  13.0 km/h 47 % 0 in /  0.0 mm
19:23 73.9 °F /  23.3 °C 52.3 °F /  11.3 °C 29.8 in /  1010.7 hPa SW 4.6 mph /  7.4 km/h 4.6 mph /  7.4 km/h 47 % 0 in /  0.0 mm
19:28 73.9 °F /  23.3 °C 52.3 °F /  11.3 °C 29.8 in /  1010.7 hPa SW 6.9 mph /  11.1 km/h 6.9 mph /  11.1 km/h 47 % 0 in /  0.0 mm
19:33 73.4 °F /  23.0 °C 52 °F /  11.1 °C 29.8 in /  1010.7 hPa SW 6.9 mph /  11.1 km/h 6.9 mph /  11.1 km/h 47 % 0 in /  0.0 mm
19:38 73 °F /  22.8 °C 52.7 °F /  11.5 °C 29.8 in /  1010.7 hPa SW 8.1 mph /  13.0 km/h 8.1 mph /  13.0 km/h 49 % 0 in /  0.0 mm
19:43 72.9 °F /  22.7 °C 52.5 °F /  11.4 °C 29.8 in /  1010.7 hPa SW 6.9 mph /  11.1 km/h 6.9 mph /  11.1 km/h 49 % 0 in /  0.0 mm
19:48 72.7 °F /  22.6 °C 52.3 °F /  11.3 °C 29.8 in /  1010.7 hPa SW 4.6 mph /  7.4 km/h 4.6 mph /  7.4 km/h 49 % 0 in /  0.0 mm
19:53 72.9 °F /  22.7 °C 52.5 °F /  11.4 °C 29.8 in /  1010.7 hPa SSW 3.5 mph /  5.6 km/h 3.5 mph /  5.6 km/h 49 % 0 in /  0.0 mm
19:58 72.7 °F /  22.6 °C 52.3 °F /  11.3 °C 29.8 in /  1010.7 hPa SW 6.9 mph /  11.1 km/h 6.9 mph /  11.1 km/h 49 % 0 in /  0.0 mm
20:03 72.5 °F /  22.5 °C 52.2 °F /  11.2 °C 29.8 in /  1010.7 hPa SW 8.1 mph /  13.0 km/h 8.1 mph /  13.0 km/h 49 % 0 in /  0.0 mm
20:08 72.5 °F /  22.5 °C 51.6 °F /  10.9 °C 29.8 in /  1010.7 hPa SSW 5.4 mph /  8.7 km/h 5.4 mph /  8.7 km/h 48 % 0 in /  0.0 mm
20:13 72.3 °F /  22.4 °C 51.1 °F /  10.6 °C 29.8 in /  1010.7 hPa SW 10.4 mph /  16.7 km/h 10.4 mph /  16.7 km/h 47 % 0 in /  0.0 mm
20:18 72.3 °F /  22.4 °C 51.4 °F /  10.8 °C 29.8 in /  1010.7 hPa WSW 10.2 mph /  16.4 km/h 10.2 mph /  16.4 km/h 48 % 0 in /  0.0 mm
20:23 72.1 °F /  22.3 °C 50.7 °F /  10.4 °C 29.8 in /  1010.7 hPa SW 8.1 mph /  13.0 km/h 8.1 mph /  13.0 km/h 47 % 0 in /  0.0 mm
20:28 72 °F /  22.2 °C 50.5 °F /  10.3 °C 29.8 in /  1010.7 hPa SW 8.1 mph /  13.0 km/h 8.1 mph /  13.0 km/h 47 % 0 in /  0.0 mm
20:33 71.8 °F /  22.1 °C 50.5 °F /  10.3 °C 29.9 in /  1011.7 hPa SW 6.9 mph /  11.1 km/h 6.9 mph /  11.1 km/h 47 % 0 in /  0.0 mm
20:38 71.6 °F /  22.0 °C 50.4 °F /  10.2 °C 29.9 in /  1011.7 hPa SW 5.8 mph /  9.3 km/h 5.8 mph /  9.3 km/h 47 % 0 in /  0.0 mm
20:43 71.1 °F /  21.7 °C 49.8 °F /  9.9 °C 29.9 in /  1011.7 hPa SSW 6.9 mph /  11.1 km/h 6.9 mph /  11.1 km/h 47 % 0 in /  0.0 mm
20:48 70.9 °F /  21.6 °C 49.6 °F /  9.8 °C 29.9 in /  1011.7 hPa SSW 8.1 mph /  13.0 km/h 8.1 mph /  13.0 km/h 47 % 0 in /  0.0 mm
20:53 70.5 °F /  21.4 °C 49.8 °F /  9.9 °C 29.9 in /  1011.7 hPa SSW 8.1 mph /  13.0 km/h 8.1 mph /  13.0 km/h 48 % 0 in /  0.0 mm
20:58 70.2 °F /  21.2 °C 49.5 °F /  9.7 °C 29.9 in /  1011.7 hPa SW 6.9 mph /  11.1 km/h 6.9 mph /  11.1 km/h 48 % 0 in /  0.0 mm
21:03 70 °F /  21.1 °C 49.5 °F /  9.7 °C 29.8 in /  1010.7 hPa SW 9.2 mph /  14.8 km/h 9.2 mph /  14.8 km/h 48 % 0 in /  0.0 mm
21:08 69.6 °F /  20.9 °C 49.6 °F /  9.8 °C 29.8 in /  1010.7 hPa SW 8.1 mph /  13.0 km/h 8.1 mph /  13.0 km/h 49 % 0 in /  0.0 mm
21:13 69.3 °F /  20.7 °C 49.3 °F /  9.6 °C 29.8 in /  1010.7 hPa WSW 7.6 mph /  12.2 km/h 7.6 mph /  12.2 km/h 49 % 0 in /  0.0 mm
21:18 68.9 °F /  20.5 °C 48.9 °F /  9.4 °C 29.8 in /  1010.7 hPa South 5.8 mph /  9.3 km/h 5.8 mph /  9.3 km/h 49 % 0 in /  0.0 mm
21:23 68.7 °F /  20.4 °C 49.3 °F /  9.6 °C 29.8 in /  1010.7 hPa WSW 10.4 mph /  16.7 km/h 10.4 mph /  16.7 km/h 50 % 0 in /  0.0 mm
21:28 68.4 °F /  20.2 °C 48.9 °F /  9.4 °C 29.8 in /  1010.7 hPa SW 5.8 mph /  9.3 km/h 5.8 mph /  9.3 km/h 50 % 0 in /  0.0 mm
21:33 68.2 °F /  20.1 °C 48.7 °F /  9.3 °C 29.9 in /  1011.7 hPa SW 6.9 mph /  11.1 km/h 6.9 mph /  11.1 km/h 50 % 0 in /  0.0 mm
21:38 68 °F /  20.0 °C 49.3 °F /  9.6 °C 29.9 in /  1011.7 hPa WSW 5.8 mph /  9.3 km/h 5.9 mph /  9.5 km/h 51 % 0 in /  0.0 mm
21:43 67.8 °F /  19.9 °C 48.9 °F /  9.4 °C 29.9 in /  1011.7 hPa WSW 8.5 mph /  13.7 km/h 8.5 mph /  13.7 km/h 51 % 0 in /  0.0 mm
21:48 67.5 °F /  19.7 °C 49.3 °F /  9.6 °C 29.9 in /  1011.7 hPa SW 7.4 mph /  11.9 km/h 7.4 mph /  11.9 km/h 52 % 0 in /  0.0 mm
21:53 67.1 °F /  19.5 °C 49.5 °F /  9.7 °C 29.9 in /  1011.7 hPa SW 7.8 mph /  12.6 km/h 7.8 mph /  12.6 km/h 53 % 0 in /  0.0 mm
21:58 66.9 °F /  19.4 °C 49.6 °F /  9.8 °C 29.9 in /  1011.7 hPa SW 4.6 mph /  7.4 km/h 4.6 mph /  7.4 km/h 54 % 0 in /  0.0 mm
22:03 66.6 °F /  19.2 °C 49.8 °F /  9.9 °C 29.9 in /  1011.7 hPa SSW 4.9 mph /  7.9 km/h 4.9 mph /  7.9 km/h 55 % 0 in /  0.0 mm
22:08 66.4 °F /  19.1 °C 50.2 °F /  10.1 °C 29.9 in /  1011.7 hPa SW 7.1 mph /  11.4 km/h 7.1 mph /  11.4 km/h 56 % 0 in /  0.0 mm
22:13 66.4 °F /  19.1 °C 51.3 °F /  10.7 °C 29.9 in /  1011.7 hPa WSW 5.8 mph /  9.3 km/h 5.8 mph /  9.3 km/h 58 % 0 in /  0.0 mm
22:18 66.2 °F /  19.0 °C 51.1 °F /  10.6 °C 29.9 in /  1011.7 hPa SW 5.8 mph /  9.3 km/h 5.8 mph /  9.3 km/h 58 % 0 in /  0.0 mm
22:23 66.2 °F /  19.0 °C 51.4 °F /  10.8 °C 29.9 in /  1011.7 hPa SW 5.8 mph /  9.3 km/h 5.8 mph /  9.3 km/h 59 % 0 in /  0.0 mm
22:28 66 °F /  18.9 °C 51.6 °F /  10.9 °C 29.9 in /  1011.7 hPa SW 8.1 mph /  13.0 km/h 8.1 mph /  13.0 km/h 60 % 0 in /  0.0 mm
22:33 65.8 °F /  18.8 °C 52 °F /  11.1 °C 29.9 in /  1011.7 hPa South 6.9 mph /  11.1 km/h 6.9 mph /  11.1 km/h 61 % 0 in /  0.0 mm
22:38 65.7 °F /  18.7 °C 51.8 °F /  11.0 °C 29.9 in /  1011.7 hPa SW 4.6 mph /  7.4 km/h 4.6 mph /  7.4 km/h 61 % 0 in /  0.0 mm
22:43 65.5 °F /  18.6 °C 51.6 °F /  10.9 °C 29.9 in /  1011.7 hPa SW 3.6 mph /  5.8 km/h 3.6 mph /  5.8 km/h 61 % 0 in /  0.0 mm
22:48 65.3 °F /  18.5 °C 51.4 °F /  10.8 °C 29.9 in /  1011.7 hPa SW 4.6 mph /  7.4 km/h 4.6 mph /  7.4 km/h 61 % 0 in /  0.0 mm
22:53 65.1 °F /  18.4 °C 51.8 °F /  11.0 °C 29.9 in /  1011.7 hPa SW 3.5 mph /  5.6 km/h 3.5 mph /  5.6 km/h 62 % 0 in /  0.0 mm
22:58 64.9 °F /  18.3 °C 51.6 °F /  10.9 °C 29.9 in /  1011.7 hPa SSW 3.6 mph /  5.8 km/h 3.6 mph /  5.8 km/h 62 % 0 in /  0.0 mm
22:59 64.9 °F /  18.3 °C 51.6 °F /  10.9 °C 29.9 in /  1011.7 hPa SSW 3.6 mph /  5.8 km/h 3.6 mph /  5.8 km/h 62 % 0 in /  0.0 mm
23:04 64.8 °F /  18.2 °C 51.4 °F /  10.8 °C 29.9 in /  1011.7 hPa SW 3.1 mph /  5.0 km/h 3.1 mph /  5.0 km/h 62 % 0 in /  0.0 mm
23:09 64.6 °F /  18.1 °C 51.6 °F /  10.9 °C 29.9 in /  1011.7 hPa WSW 3.5 mph /  5.6 km/h 3.5 mph /  5.6 km/h 63 % 0 in /  0.0 mm
23:14 64.4 °F /  18.0 °C 51.4 °F /  10.8 °C 29.9 in /  1011.7 hPa SW 4.6 mph /  7.4 km/h 4.6 mph /  7.4 km/h 63 % 0 in /  0.0 mm
23:19 64.4 °F /  18.0 °C 51.4 °F /  10.8 °C 29.9 in /  1011.7 hPa SSW 3.5 mph /  5.6 km/h 3.5 mph /  5.6 km/h 63 % 0 in /  0.0 mm
23:24 64.2 °F /  17.9 °C 51.4 °F /  10.8 °C 29.9 in /  1011.7 hPa SW 2.3 mph /  3.7 km/h 2.3 mph /  3.7 km/h 63 % 0 in /  0.0 mm
23:29 64 °F /  17.8 °C 51.3 °F /  10.7 °C 29.9 in /  1011.7 hPa SW 2.9 mph /  4.7 km/h 2.9 mph /  4.7 km/h 63 % 0 in /  0.0 mm
23:31 64 °F /  17.8 °C 51.3 °F /  10.7 °C 29.9 in /  1011.7 hPa SW 3.5 mph /  5.6 km/h 3.5 mph /  5.6 km/h 63 % 0 in /  0.0 mm
23:36 63.9 °F /  17.7 °C 51.1 °F /  10.6 °C 29.9 in /  1012.8 hPa SW 3.5 mph /  5.6 km/h 3.5 mph /  5.6 km/h 63 % 0 in /  0.0 mm
23:41 63.7 °F /  17.6 °C 51.3 °F /  10.7 °C 29.9 in /  1012.8 hPa SW 2.9 mph /  4.7 km/h 2.9 mph /  4.7 km/h 64 % 0 in /  0.0 mm
23:46 63.5 °F /  17.5 °C 50.7 °F /  10.4 °C 29.9 in /  1012.8 hPa SSW 4.6 mph /  7.4 km/h 4.6 mph /  7.4 km/h 63 % 0 in /  0.0 mm
23:51 63.5 °F /  17.5 °C 51.1 °F /  10.6 °C 29.9 in /  1011.7 hPa SW 4.6 mph /  7.4 km/h 4.6 mph /  7.4 km/h 64 % 0 in /  0.0 mm
23:56 63.7 °F /  17.6 °C 51.3 °F /  10.7 °C 29.9 in /  1011.7 hPa SW 4.7 mph /  7.6 km/h 4.7 mph /  7.6 km/h 64 % 0 in /  0.0 mm
Meteo Sesrovires
Elogis d' Weather Underground - 3.5 mb

Guio original per  Jim McMurry - jmcmurry@mwt.net Adaptat per a la plantilla per  Wim van der Kuil - Leuven-Template.eu

Trobareu la nostra informacio del temps tambe a:

Weather Underground

AWEKAS